createdAt,value
2018-03-26T00:02:18.928Z,2.72
2018-03-26T00:04:46.502Z,2.69
2018-03-26T00:07:14.055Z,2.70
2018-03-26T00:09:41.620Z,2.75
2018-03-26T00:12:09.194Z,2.72
2018-03-26T00:14:36.767Z,2.71
2018-03-26T00:17:04.310Z,2.72
2018-03-26T00:19:32.105Z,2.71
2018-03-26T00:21:59.659Z,2.69
2018-03-26T00:24:27.189Z,2.68
2018-03-26T00:26:54.746Z,2.63
2018-03-26T00:29:22.275Z,2.59
2018-03-26T00:31:49.827Z,2.61
2018-03-26T00:34:17.431Z,2.62
2018-03-26T00:36:44.976Z,2.65
2018-03-26T00:39:12.511Z,2.57
2018-03-26T00:41:40.231Z,2.59
2018-03-26T00:44:07.778Z,2.58
2018-03-26T00:46:35.317Z,2.58
2018-03-26T00:49:03.046Z,2.59
2018-03-26T00:51:30.591Z,2.52
2018-03-26T00:53:58.132Z,2.50
2018-03-26T00:56:25.702Z,2.51
2018-03-26T00:58:53.239Z,2.50
2018-03-26T01:01:20.782Z,2.45
2018-03-26T01:03:48.353Z,2.44
2018-03-26T01:06:15.882Z,2.42
2018-03-26T01:08:43.419Z,2.42
2018-03-26T01:11:11.080Z,2.41
2018-03-26T01:13:38.622Z,2.46
2018-03-26T01:16:06.159Z,2.45
2018-03-26T01:18:33.723Z,2.42
2018-03-26T01:21:01.303Z,2.41
2018-03-26T01:23:28.841Z,2.39
2018-03-26T01:25:56.422Z,2.38
2018-03-26T01:28:23.949Z,2.38
2018-03-26T01:30:51.497Z,2.34
2018-03-26T01:33:19.361Z,2.33
2018-03-26T01:35:46.886Z,2.36
2018-03-26T01:38:14.429Z,2.33
2018-03-26T01:40:42.002Z,2.29
2018-03-26T01:43:09.551Z,2.30
2018-03-26T01:45:37.116Z,2.28
2018-03-26T01:48:04.848Z,2.29
2018-03-26T01:50:32.423Z,2.32
2018-03-26T01:52:59.979Z,2.29
2018-03-26T01:55:27.543Z,2.32
2018-03-26T01:57:55.081Z,2.35
2018-03-26T02:00:22.629Z,2.33
2018-03-26T02:02:50.223Z,2.39
2018-03-26T02:05:18.494Z,2.38
2018-03-26T02:07:46.055Z,2.33
2018-03-26T02:10:13.771Z,2.25
2018-03-26T02:12:41.322Z,2.23
2018-03-26T02:15:08.880Z,2.13
2018-03-26T02:17:36.750Z,2.12
2018-03-26T02:20:04.336Z,2.08
2018-03-26T02:22:31.869Z,2.00
2018-03-26T02:24:59.451Z,1.98
2018-03-26T02:27:26.999Z,2.00
2018-03-26T02:29:54.534Z,2.01
2018-03-26T02:32:22.117Z,1.97
2018-03-26T02:34:49.662Z,1.98
2018-03-26T02:37:17.237Z,1.99
2018-03-26T02:39:44.808Z,2.00
2018-03-26T02:42:12.358Z,2.01
2018-03-26T02:44:39.943Z,2.03
2018-03-26T02:47:07.503Z,2.06
2018-03-26T02:49:35.053Z,2.09
2018-03-26T02:52:02.593Z,2.13
2018-03-26T02:54:30.180Z,2.15
2018-03-26T02:56:57.729Z,2.17
2018-03-26T02:59:25.274Z,2.23
2018-03-26T03:01:52.953Z,2.27
2018-03-26T03:04:20.495Z,2.36
2018-03-26T03:06:48.038Z,2.38
2018-03-26T03:09:15.625Z,2.33
2018-03-26T03:11:43.161Z,2.33
2018-03-26T03:14:10.696Z,2.28
2018-03-26T03:16:38.406Z,2.29
2018-03-26T03:19:05.945Z,2.32
2018-03-26T03:21:33.490Z,2.34
2018-03-26T03:24:01.065Z,2.36
2018-03-26T03:26:28.609Z,2.39
2018-03-26T03:28:56.138Z,2.35
2018-03-26T03:31:23.712Z,2.38
2018-03-26T03:33:51.283Z,2.39
2018-03-26T03:36:18.814Z,2.37
2018-03-26T03:38:46.366Z,2.31
2018-03-26T03:41:13.902Z,2.26
2018-03-26T03:43:41.451Z,2.25
2018-03-26T03:46:08.974Z,2.23
2018-03-26T03:48:36.543Z,2.14
2018-03-26T03:51:04.428Z,2.11
2018-03-26T03:53:31.959Z,2.06
2018-03-26T03:55:59.495Z,2.00
2018-03-26T03:58:27.078Z,1.98
2018-03-26T04:00:54.617Z,1.97
2018-03-26T04:03:22.196Z,1.96
2018-03-26T04:05:49.910Z,1.95
2018-03-26T04:08:17.481Z,2.02
2018-03-26T04:10:45.009Z,2.08
2018-03-26T04:13:12.826Z,2.08
2018-03-26T04:15:40.375Z,2.10
2018-03-26T04:18:08.076Z,2.15
2018-03-26T04:20:35.669Z,2.07
2018-03-26T04:23:03.210Z,2.00
2018-03-26T04:25:30.761Z,2.06
2018-03-26T04:27:58.413Z,2.06
2018-03-26T04:30:25.947Z,2.11
2018-03-26T04:32:53.486Z,2.16
2018-03-26T04:35:21.105Z,2.15
2018-03-26T04:37:48.606Z,2.15
2018-03-26T04:40:16.150Z,2.17
2018-03-26T04:42:43.817Z,2.20
2018-03-26T04:45:11.376Z,2.28
2018-03-26T04:47:38.917Z,2.28
2018-03-26T04:50:06.490Z,2.30
2018-03-26T04:52:34.031Z,2.37
2018-03-26T04:55:01.590Z,2.39
2018-03-26T04:57:29.166Z,2.43
2018-03-26T04:59:56.713Z,2.49
2018-03-26T05:02:24.269Z,2.60
2018-03-26T05:04:51.856Z,2.69
2018-03-26T05:07:19.411Z,2.68
2018-03-26T05:09:46.951Z,2.75
2018-03-26T05:12:14.609Z,2.81
2018-03-26T05:14:42.146Z,2.82
2018-03-26T05:17:09.679Z,2.82
2018-03-26T05:19:37.285Z,2.88
2018-03-26T05:22:04.823Z,2.87
2018-03-26T05:24:32.367Z,2.88
2018-03-26T05:27:00.250Z,2.84
2018-03-26T05:29:27.794Z,2.93
2018-03-26T05:31:56.233Z,2.83
2018-03-26T05:34:23.946Z,2.86
2018-03-26T05:36:51.512Z,2.95
2018-03-26T05:39:19.054Z,3.00
2018-03-26T05:41:46.730Z,3.13
2018-03-26T05:44:14.285Z,3.31
2018-03-26T05:46:41.830Z,3.47
2018-03-26T05:49:09.578Z,3.53
2018-03-26T05:51:37.119Z,3.69
2018-03-26T05:54:04.660Z,3.89
2018-03-26T05:56:32.255Z,4.07
2018-03-26T05:58:59.811Z,4.44
2018-03-26T06:01:27.368Z,4.74
2018-03-26T06:03:54.975Z,5.09
2018-03-26T06:06:22.533Z,5.39
2018-03-26T06:08:50.087Z,6.05
2018-03-26T06:11:17.705Z,6.57
2018-03-26T06:13:45.241Z,6.64
2018-03-26T06:16:12.777Z,6.85
2018-03-26T06:18:40.361Z,7.07
2018-03-26T06:21:07.932Z,6.79
2018-03-26T06:23:35.491Z,6.40
2018-03-26T06:26:03.091Z,6.51
2018-03-26T06:28:30.655Z,6.34
2018-03-26T06:30:58.221Z,6.24
2018-03-26T06:33:25.807Z,6.22
2018-03-26T06:35:53.350Z,6.29
2018-03-26T06:38:23.431Z,6.03
2018-03-26T06:40:51.182Z,5.86
2018-03-26T06:43:18.749Z,5.78
2018-03-26T06:45:46.287Z,5.68
2018-03-26T06:48:13.883Z,5.92
2018-03-26T06:50:41.423Z,6.25
2018-03-26T06:53:08.960Z,6.34
2018-03-26T06:55:36.522Z,6.63
2018-03-26T06:58:04.079Z,6.93
2018-03-26T07:00:31.616Z,7.43
2018-03-26T07:02:59.321Z,7.76
2018-03-26T07:05:26.861Z,7.69
2018-03-26T07:07:54.412Z,7.36
2018-03-26T07:10:21.996Z,7.07
2018-03-26T07:12:49.530Z,7.17
2018-03-26T07:15:17.077Z,7.14
2018-03-26T07:17:44.649Z,6.99
2018-03-26T07:20:12.209Z,6.74
2018-03-26T07:22:39.781Z,6.81
2018-03-26T07:25:07.672Z,6.57
2018-03-26T07:27:35.248Z,6.58
2018-03-26T07:30:02.808Z,6.61
2018-03-26T07:32:30.421Z,7.01
2018-03-26T07:34:57.963Z,6.99
2018-03-26T07:37:25.518Z,6.97
2018-03-26T07:39:53.083Z,6.97
2018-03-26T07:42:20.637Z,7.01
2018-03-26T07:44:48.177Z,7.06
2018-03-26T07:47:15.920Z,7.01
2018-03-26T07:49:43.463Z,7.08
2018-03-26T07:52:11.000Z,7.15
2018-03-26T07:54:38.596Z,7.00
2018-03-26T07:57:06.125Z,7.03
2018-03-26T07:59:33.678Z,6.61
2018-03-26T08:02:01.254Z,6.73
2018-03-26T08:04:28.799Z,6.65
2018-03-26T08:06:56.354Z,6.33
2018-03-26T08:09:23.929Z,6.16
2018-03-26T08:11:51.479Z,6.11
2018-03-26T08:14:19.024Z,6.48
2018-03-26T08:16:46.622Z,6.82
2018-03-26T08:19:14.170Z,7.06
2018-03-26T08:21:41.710Z,7.22
2018-03-26T08:24:09.282Z,7.58
2018-03-26T08:26:36.839Z,7.44
2018-03-26T08:29:04.381Z,7.45
2018-03-26T08:31:32.106Z,7.52
2018-03-26T08:33:59.648Z,7.78
2018-03-26T08:36:27.243Z,8.10
2018-03-26T08:38:54.782Z,8.21
2018-03-26T08:41:22.338Z,8.21
2018-03-26T08:43:50.023Z,8.46
2018-03-26T08:46:17.573Z,8.63
2018-03-26T08:48:45.117Z,8.67
2018-03-26T08:51:12.713Z,8.73
2018-03-26T08:53:40.318Z,8.84
2018-03-26T08:56:07.849Z,9.10
2018-03-26T08:58:35.713Z,8.92
2018-03-26T09:01:03.254Z,8.62
2018-03-26T09:03:30.793Z,8.74
2018-03-26T09:05:58.473Z,9.15
2018-03-26T09:08:26.022Z,8.92
2018-03-26T09:10:53.567Z,8.87
2018-03-26T09:13:21.307Z,8.90
2018-03-26T09:15:48.850Z,9.15
2018-03-26T09:18:16.387Z,9.33
2018-03-26T09:20:44.182Z,8.96
2018-03-26T09:23:11.757Z,8.62
2018-03-26T09:25:39.319Z,8.40
2018-03-26T09:28:07.002Z,8.68
2018-03-26T09:30:34.549Z,8.83
2018-03-26T09:33:02.092Z,8.52
2018-03-26T09:35:29.675Z,8.74
2018-03-26T09:37:57.231Z,8.96
2018-03-26T09:40:24.806Z,8.30
2018-03-26T09:42:52.404Z,8.39
2018-03-26T09:45:19.958Z,8.51
2018-03-26T09:47:47.541Z,8.40
2018-03-26T09:50:15.231Z,8.16
2018-03-26T09:52:42.791Z,7.87
2018-03-26T09:55:10.359Z,7.98
2018-03-26T09:57:38.089Z,7.72
2018-03-26T10:00:05.670Z,7.94
2018-03-26T10:02:33.211Z,8.16
2018-03-26T10:05:00.781Z,8.15
2018-03-26T10:07:28.321Z,8.22
2018-03-26T10:09:55.872Z,8.43
2018-03-26T10:12:23.454Z,8.12
2018-03-26T10:14:50.993Z,8.20
2018-03-26T10:17:18.552Z,7.83
2018-03-26T10:19:46.176Z,7.82
2018-03-26T10:22:13.703Z,7.99
2018-03-26T10:24:41.238Z,8.21
2018-03-26T10:27:08.805Z,8.19
2018-03-26T10:29:36.351Z,7.95
2018-03-26T10:32:03.898Z,7.74
2018-03-26T10:34:31.484Z,7.80
2018-03-26T10:36:59.026Z,8.06
2018-03-26T10:39:26.585Z,8.15
2018-03-26T10:41:54.305Z,7.96
2018-03-26T10:44:21.857Z,7.97
2018-03-26T10:46:49.415Z,7.82
2018-03-26T10:49:17.102Z,7.84
2018-03-26T10:51:44.643Z,7.97
2018-03-26T10:54:12.196Z,7.68
2018-03-26T10:56:39.775Z,7.93
2018-03-26T10:59:07.317Z,7.81
2018-03-26T11:01:34.841Z,7.63
2018-03-26T11:04:02.426Z,7.40
2018-03-26T11:06:29.969Z,7.42
2018-03-26T11:08:57.517Z,7.61
2018-03-26T11:11:25.095Z,7.41
2018-03-26T11:13:52.643Z,7.61
2018-03-26T11:16:20.201Z,7.63
2018-03-26T11:18:47.793Z,7.65
2018-03-26T11:21:15.355Z,7.86
2018-03-26T11:23:42.903Z,8.11
2018-03-26T11:26:10.768Z,8.68
2018-03-26T11:28:38.302Z,8.90
2018-03-26T11:31:05.844Z,9.21
2018-03-26T11:33:33.432Z,9.40
2018-03-26T11:36:00.976Z,9.61
2018-03-26T11:38:28.526Z,9.31
2018-03-26T11:40:56.395Z,9.22
2018-03-26T11:43:23.943Z,9.07
2018-03-26T11:45:51.481Z,9.11
2018-03-26T11:48:19.057Z,9.08
2018-03-26T11:50:46.598Z,9.21
2018-03-26T11:53:14.154Z,9.19
2018-03-26T11:55:42.003Z,9.03
2018-03-26T11:58:09.556Z,8.91
2018-03-26T12:00:37.079Z,8.55
2018-03-26T12:03:05.234Z,8.79
2018-03-26T12:05:32.804Z,8.31
2018-03-26T12:08:00.350Z,8.59
2018-03-26T12:10:28.097Z,8.37
2018-03-26T12:12:55.646Z,8.50
2018-03-26T12:15:23.183Z,8.73
2018-03-26T12:17:50.786Z,8.87
2018-03-26T12:20:30.070Z,8.78
2018-03-26T12:22:57.799Z,8.86
2018-03-26T12:25:25.381Z,9.03
2018-03-26T12:28:04.569Z,9.07
2018-03-26T12:30:32.146Z,9.26
2018-03-26T12:32:59.687Z,9.11
2018-03-26T12:35:39.517Z,8.90
2018-03-26T12:38:07.065Z,8.83
2018-03-26T12:40:46.178Z,8.64
2018-03-26T12:43:13.722Z,8.63
2018-03-26T12:45:52.980Z,8.41
2018-03-26T12:48:20.526Z,8.39
2018-03-26T12:50:59.748Z,8.42
2018-03-26T12:53:27.299Z,8.40
2018-03-26T12:55:54.839Z,8.50
2018-03-26T12:58:34.263Z,8.60
2018-03-26T13:01:13.550Z,8.57
2018-03-26T13:03:41.134Z,8.44
2018-03-26T13:06:08.692Z,8.54
2018-03-26T13:08:36.253Z,8.49
2018-03-26T13:11:04.145Z,8.36
2018-03-26T13:13:31.722Z,8.23
2018-03-26T13:15:59.270Z,7.95
2018-03-26T13:18:26.990Z,7.91
2018-03-26T13:20:54.543Z,7.79
2018-03-26T13:23:22.132Z,7.80
2018-03-26T13:25:49.758Z,7.81
2018-03-26T13:28:17.314Z,7.92
2018-03-26T13:30:44.903Z,7.83
2018-03-26T13:33:12.499Z,7.69
2018-03-26T13:35:40.043Z,7.64
2018-03-26T13:38:07.622Z,7.49
2018-03-26T13:40:35.248Z,7.51
2018-03-26T13:43:02.817Z,7.49
2018-03-26T13:45:30.375Z,7.42
2018-03-26T13:47:57.969Z,7.37
2018-03-26T13:50:25.535Z,7.31
2018-03-26T13:52:53.095Z,7.38
2018-03-26T13:55:20.691Z,7.41
2018-03-26T13:57:48.887Z,7.40
2018-03-26T14:00:16.466Z,7.53
2018-03-26T14:02:44.056Z,7.58
2018-03-26T14:05:11.600Z,7.55
2018-03-26T14:07:39.156Z,7.45
2018-03-26T14:10:18.578Z,7.35
2018-03-26T14:12:57.796Z,7.43
2018-03-26T14:15:37.024Z,7.40
2018-03-26T14:18:06.446Z,7.45
2018-03-26T14:20:34.014Z,7.66
2018-03-26T14:23:01.626Z,7.83
2018-03-26T14:25:29.191Z,7.82
2018-03-26T14:27:56.755Z,7.67
2018-03-26T14:30:24.354Z,7.74
2018-03-26T14:32:51.902Z,7.86
2018-03-26T14:38:25.763Z,8.03
2018-03-26T14:40:53.491Z,8.07
2018-03-26T14:43:21.066Z,8.10
2018-03-26T14:45:48.618Z,8.26
2018-03-26T14:48:16.323Z,8.16
2018-03-26T14:50:43.878Z,8.13
2018-03-26T14:53:11.423Z,8.20
2018-03-26T14:55:39.015Z,8.14
2018-03-26T14:58:06.585Z,8.18
2018-03-26T15:00:34.144Z,8.11
2018-03-26T15:03:01.753Z,8.07
2018-03-26T15:05:29.312Z,7.99
2018-03-26T15:07:56.876Z,8.02
2018-03-26T15:10:24.462Z,7.88
2018-03-26T15:12:52.208Z,7.75
2018-03-26T15:15:19.770Z,7.71
2018-03-26T15:17:47.382Z,7.71
2018-03-26T15:20:14.984Z,7.61
2018-03-26T15:22:42.570Z,7.59
2018-03-26T15:25:10.204Z,7.64
2018-03-26T15:27:38.514Z,7.71
2018-03-26T15:30:06.088Z,7.78
2018-03-26T15:32:33.983Z,7.78
2018-03-26T15:35:01.537Z,7.74
2018-03-26T15:37:29.125Z,7.74
2018-03-26T15:39:56.731Z,7.72
2018-03-26T15:42:24.348Z,7.64
2018-03-26T15:44:52.016Z,7.50
2018-03-26T15:47:19.563Z,7.41
2018-03-26T15:49:47.122Z,7.34
2018-03-26T15:52:14.890Z,7.32
2018-03-26T15:54:42.465Z,7.19
2018-03-26T15:57:10.050Z,7.10
2018-03-26T15:59:37.656Z,7.00
2018-03-26T16:02:04.688Z,6.94
2018-03-26T16:04:32.315Z,6.97
2018-03-26T16:07:00.007Z,6.83
2018-03-26T16:09:27.566Z,6.66
2018-03-26T16:11:55.242Z,6.59
2018-03-26T16:14:22.978Z,6.53
2018-03-26T16:16:50.538Z,6.52
2018-03-26T16:19:18.090Z,6.50
2018-03-26T16:21:45.698Z,6.51
2018-03-26T16:24:13.259Z,6.46
2018-03-26T16:26:40.816Z,6.46
2018-03-26T16:29:08.500Z,6.37
2018-03-26T16:31:36.055Z,6.40
2018-03-26T16:34:03.621Z,6.28
2018-03-26T16:36:31.534Z,6.26
2018-03-26T16:38:59.086Z,6.16
2018-03-26T16:41:38.464Z,6.10
2018-03-26T16:44:06.066Z,6.12
2018-03-26T16:46:33.632Z,6.07
2018-03-26T16:49:01.218Z,6.06
2018-03-26T16:51:28.797Z,6.01
2018-03-26T16:53:56.347Z,6.00
2018-03-26T16:56:24.252Z,5.99
2018-03-26T16:58:51.842Z,6.01
2018-03-26T17:01:19.420Z,6.02
2018-03-26T17:03:47.221Z,6.01
2018-03-26T17:06:14.765Z,5.99
2018-03-26T17:08:42.314Z,6.03
2018-03-26T17:11:09.907Z,5.95
2018-03-26T17:13:37.450Z,5.92
2018-03-26T17:16:05.057Z,5.90
2018-03-26T17:18:32.652Z,5.88
2018-03-26T17:21:00.274Z,5.86
2018-03-26T17:23:27.852Z,5.86
2018-03-26T17:25:55.477Z,5.83
2018-03-26T17:28:23.057Z,5.80
2018-03-26T17:30:50.644Z,5.76
2018-03-26T17:33:18.288Z,5.70
2018-03-26T17:35:45.853Z,5.71
2018-03-26T17:38:13.415Z,5.71
2018-03-26T17:40:41.033Z,5.70
2018-03-26T17:43:08.583Z,5.67
2018-03-26T17:45:36.141Z,5.67
2018-03-26T17:48:03.861Z,5.62
2018-03-26T17:50:31.422Z,5.62
2018-03-26T17:52:58.969Z,5.60
2018-03-26T17:55:26.551Z,5.59
2018-03-26T17:57:54.115Z,5.54
2018-03-26T18:00:21.671Z,5.54
2018-03-26T18:02:49.385Z,5.54
2018-03-26T18:05:16.950Z,5.53
2018-03-26T18:07:44.535Z,5.55
2018-03-26T18:10:12.290Z,5.57
2018-03-26T18:12:39.828Z,5.56
2018-03-26T18:15:07.403Z,5.56
2018-03-26T18:17:35.286Z,5.56
2018-03-26T18:20:03.166Z,5.53
2018-03-26T18:22:30.790Z,5.49
2018-03-26T18:24:58.602Z,5.48
2018-03-26T18:27:26.153Z,5.48
2018-03-26T18:29:53.715Z,5.43
2018-03-26T18:32:21.307Z,5.39
2018-03-26T18:34:48.866Z,5.35
2018-03-26T18:37:16.409Z,5.35
2018-03-26T18:39:43.965Z,5.31
2018-03-26T18:42:11.542Z,5.28
2018-03-26T18:44:39.287Z,5.26
2018-03-26T18:47:06.848Z,5.26
2018-03-26T18:49:34.437Z,5.25
2018-03-26T18:52:02.123Z,5.21
2018-03-26T18:54:29.690Z,5.19
2018-03-26T18:56:58.205Z,5.19
2018-03-26T18:59:25.914Z,5.16
2018-03-26T19:01:53.470Z,5.16
2018-03-26T19:04:21.056Z,5.14
2018-03-26T19:06:48.822Z,5.10
2018-03-26T19:09:16.386Z,5.08
2018-03-26T19:11:43.947Z,5.05
2018-03-26T19:14:11.549Z,5.06
2018-03-26T19:16:39.143Z,5.05
2018-03-26T19:19:06.701Z,5.04
2018-03-26T19:21:34.606Z,5.04
2018-03-26T19:24:02.164Z,5.06
2018-03-26T19:26:29.723Z,5.01
2018-03-26T19:28:57.354Z,4.96
2018-03-26T19:31:25.637Z,4.97
2018-03-26T19:33:53.181Z,4.92
2018-03-26T19:36:20.926Z,4.91
2018-03-26T19:38:48.497Z,4.90
2018-03-26T19:41:16.068Z,4.88
2018-03-26T19:43:43.670Z,4.85
2018-03-26T19:46:11.247Z,4.84
2018-03-26T19:48:38.825Z,4.83
2018-03-26T19:51:06.422Z,4.83
2018-03-26T19:53:33.974Z,4.84
2018-03-26T19:56:01.541Z,4.85
2018-03-26T19:58:29.608Z,4.88
2018-03-26T20:00:57.166Z,4.91
2018-03-26T20:03:24.724Z,4.91
2018-03-26T20:05:52.453Z,4.91
2018-03-26T20:08:20.010Z,4.91
2018-03-26T20:10:47.563Z,4.95
2018-03-26T20:13:15.241Z,4.94
2018-03-26T20:15:42.799Z,4.95
2018-03-26T20:18:10.356Z,4.98
2018-03-26T20:20:37.961Z,4.97
2018-03-26T20:23:05.541Z,4.98
2018-03-26T20:25:33.088Z,4.97
2018-03-26T20:28:00.690Z,4.97
2018-03-26T20:30:28.235Z,4.96
2018-03-26T20:32:55.798Z,4.93
2018-03-26T20:35:23.687Z,4.95
2018-03-26T20:37:51.241Z,4.94
2018-03-26T20:40:18.817Z,4.94
2018-03-26T20:42:46.554Z,4.98
2018-03-26T20:45:14.106Z,5.01
2018-03-26T20:47:41.658Z,4.98
2018-03-26T20:50:09.266Z,4.98
2018-03-26T20:52:36.809Z,4.99
2018-03-26T20:55:04.410Z,4.98
2018-03-26T20:57:32.011Z,4.96
2018-03-26T20:59:59.582Z,4.95
2018-03-26T21:02:27.146Z,4.95
2018-03-26T21:04:54.871Z,4.95
2018-03-26T21:07:22.428Z,4.93
2018-03-26T21:09:49.987Z,4.94
2018-03-26T21:12:17.585Z,4.92
2018-03-26T21:14:45.140Z,4.92
2018-03-26T21:17:12.743Z,4.93
2018-03-26T21:19:40.610Z,4.95
2018-03-26T21:22:08.180Z,4.94
2018-03-26T21:24:35.736Z,4.93
2018-03-26T21:27:03.625Z,4.94
2018-03-26T21:29:31.173Z,4.95
2018-03-26T21:31:58.750Z,4.97
2018-03-26T21:34:26.487Z,4.96
2018-03-26T21:36:54.054Z,4.95
2018-03-26T21:39:21.609Z,4.92
2018-03-26T21:41:49.222Z,4.90
2018-03-26T21:44:16.798Z,4.90
2018-03-26T21:46:44.354Z,4.90
2018-03-26T21:49:12.070Z,4.91
2018-03-26T21:51:39.617Z,4.88
2018-03-26T21:54:07.200Z,4.87
2018-03-26T21:56:34.900Z,4.88
2018-03-26T21:59:02.466Z,4.88
2018-03-26T22:01:30.029Z,4.89
2018-03-26T22:03:57.897Z,4.87
2018-03-26T22:06:25.455Z,4.86
2018-03-26T22:08:53.013Z,4.83
2018-03-26T22:11:20.585Z,4.86
2018-03-26T22:13:48.147Z,4.85
2018-03-26T22:16:15.727Z,4.85
2018-03-26T22:18:43.467Z,4.87
2018-03-26T22:21:11.018Z,4.83
2018-03-26T22:23:38.600Z,4.83
2018-03-26T22:26:06.205Z,4.86
2018-03-26T22:28:33.761Z,4.84
2018-03-26T22:31:01.328Z,4.84
2018-03-26T22:33:28.918Z,4.85
2018-03-26T22:35:56.478Z,4.80
2018-03-26T22:38:24.037Z,4.78
2018-03-26T22:40:51.616Z,4.79
2018-03-26T22:43:19.170Z,4.79
2018-03-26T22:45:46.899Z,4.79
2018-03-26T22:48:14.471Z,4.79
2018-03-26T22:50:42.070Z,4.77
2018-03-26T22:53:09.642Z,4.75
2018-03-26T22:55:37.192Z,4.76
2018-03-26T22:58:04.759Z,4.76
2018-03-26T23:00:32.353Z,4.77
2018-03-26T23:02:59.913Z,4.77
2018-03-26T23:05:27.470Z,4.77
2018-03-26T23:07:55.150Z,4.73
2018-03-26T23:10:22.710Z,4.74
2018-03-26T23:12:50.251Z,4.77
2018-03-26T23:15:17.846Z,4.77
2018-03-26T23:17:45.394Z,4.78
2018-03-26T23:20:12.950Z,4.81
2018-03-26T23:22:48.374Z,4.82
2018-03-26T23:25:15.926Z,4.82
2018-03-26T23:27:43.485Z,4.82
2018-03-26T23:30:11.221Z,4.85
2018-03-26T23:32:38.772Z,4.83
2018-03-26T23:35:06.308Z,4.84
2018-03-26T23:37:34.182Z,4.85
2018-03-26T23:40:01.730Z,4.82
2018-03-26T23:42:29.274Z,4.82
2018-03-26T23:44:56.968Z,4.88
2018-03-26T23:47:24.522Z,4.84
2018-03-26T23:49:52.078Z,4.75
2018-03-26T23:52:19.889Z,4.71
2018-03-26T23:54:47.440Z,4.73
2018-03-26T23:57:14.986Z,4.72
2018-03-26T23:59:42.867Z,4.74
